createdAt,value
2016-07-03T00:00:09.211Z,1013.67
2016-07-03T00:00:19.211Z,1013.6
2016-07-03T00:00:29.198Z,1013.56
2016-07-03T00:00:39.194Z,1013.64
2016-07-03T00:00:49.216Z,1013.59
2016-07-03T00:00:59.180Z,1013.64
2016-07-03T00:01:09.181Z,1013.59
2016-07-03T00:01:19.182Z,1013.61
2016-07-03T00:01:29.490Z,1013.62
2016-07-03T00:01:39.171Z,1013.64
2016-07-03T00:01:49.837Z,1013.6
2016-07-03T00:01:59.159Z,1013.57
2016-07-03T00:02:09.152Z,1013.6
2016-07-03T00:02:19.143Z,1013.57
2016-07-03T00:02:29.144Z,1013.56
2016-07-03T00:02:39.135Z,1013.57
2016-07-03T00:02:49.124Z,1013.61
2016-07-03T00:02:59.130Z,1013.59
2016-07-03T00:03:09.120Z,1013.57
2016-07-03T00:03:19.115Z,1013.59
2016-07-03T00:03:29.109Z,1013.62
2016-07-03T00:03:39.108Z,1013.57
2016-07-03T00:03:49.102Z,1013.58
2016-07-03T00:03:59.094Z,1013.63
2016-07-03T00:04:09.090Z,1013.64
2016-07-03T00:04:19.082Z,1013.59
2016-07-03T00:04:29.089Z,1013.57
2016-07-03T00:04:39.075Z,1013.54
2016-07-03T00:04:49.065Z,1013.56
2016-07-03T00:04:59.061Z,1013.58
2016-07-03T00:05:09.060Z,1013.56
2016-07-03T00:05:19.055Z,1013.57
2016-07-03T00:05:29.052Z,1013.59
2016-07-03T00:05:39.049Z,1013.58
2016-07-03T00:05:49.046Z,1013.57
2016-07-03T00:05:59.038Z,1013.58
2016-07-03T00:06:09.028Z,1013.57
2016-07-03T00:06:19.027Z,1013.59
2016-07-03T00:06:29.018Z,1013.56
2016-07-03T00:06:39.020Z,1013.55
2016-07-03T00:06:49.011Z,1013.57
2016-07-03T00:06:59.004Z,1013.51
2016-07-03T00:07:09.005Z,1013.55
2016-07-03T00:07:18.995Z,1013.56
2016-07-03T00:07:28.997Z,1013.6
2016-07-03T00:07:38.985Z,1013.54
2016-07-03T00:07:48.980Z,1013.53
2016-07-03T00:07:58.964Z,1013.56
2016-07-03T00:08:08.967Z,1013.57
2016-07-03T00:08:18.956Z,1013.54
2016-07-03T00:08:28.955Z,1013.55
2016-07-03T00:08:38.956Z,1013.53
2016-07-03T00:08:48.951Z,1013.6
2016-07-03T00:08:58.944Z,1013.53
2016-07-03T00:09:08.942Z,1013.55
2016-07-03T00:09:18.931Z,1013.56
2016-07-03T00:09:28.931Z,1013.51
2016-07-03T00:09:38.925Z,1013.58
2016-07-03T00:09:48.921Z,1013.56
2016-07-03T00:09:58.934Z,1013.55
2016-07-03T00:10:08.911Z,1013.56
2016-07-03T00:10:18.899Z,1013.56
2016-07-03T00:10:28.899Z,1013.59
2016-07-03T00:10:38.896Z,1013.57
2016-07-03T00:10:48.889Z,1013.53
2016-07-03T00:10:58.889Z,1013.6
2016-07-03T00:11:08.887Z,1013.6
2016-07-03T00:11:18.888Z,1013.58
2016-07-03T00:11:28.872Z,1013.53
2016-07-03T00:11:38.862Z,1013.53
2016-07-03T00:11:48.862Z,1013.6
2016-07-03T00:11:58.852Z,1013.59
2016-07-03T00:12:08.856Z,1013.56
2016-07-03T00:12:18.844Z,1013.56
2016-07-03T00:12:28.849Z,1013.57
2016-07-03T00:12:38.840Z,1013.56
2016-07-03T00:12:48.833Z,1013.6
2016-07-03T00:12:58.825Z,1013.55
2016-07-03T00:13:08.824Z,1013.59
2016-07-03T00:13:18.819Z,1013.56
2016-07-03T00:13:28.807Z,1013.53
2016-07-03T00:13:38.801Z,1013.58
2016-07-03T00:13:48.800Z,1013.56
2016-07-03T00:13:58.795Z,1013.56
2016-07-03T00:14:08.790Z,1013.57
2016-07-03T00:14:18.789Z,1013.51
2016-07-03T00:14:28.784Z,1013.53
2016-07-03T00:14:38.773Z,1013.56
2016-07-03T00:14:48.774Z,1013.55
2016-07-03T00:14:58.764Z,1013.58
2016-07-03T00:15:08.766Z,1013.58
2016-07-03T00:15:18.756Z,1013.57
2016-07-03T00:15:28.745Z,1013.56
2016-07-03T00:15:38.749Z,1013.54
2016-07-03T00:15:48.736Z,1013.58
2016-07-03T00:15:58.734Z,1013.55
2016-07-03T00:16:08.727Z,1013.56
2016-07-03T00:16:18.722Z,1013.53
2016-07-03T00:16:28.715Z,1013.62
2016-07-03T00:16:38.710Z,1013.59
2016-07-03T00:16:48.714Z,1013.59
2016-07-03T00:16:58.706Z,1013.55
2016-07-03T00:17:08.698Z,1013.58
2016-07-03T00:17:18.696Z,1013.54
2016-07-03T00:17:28.681Z,1013.53
2016-07-03T00:17:38.688Z,1013.61
2016-07-03T00:17:48.678Z,1013.62
2016-07-03T00:17:58.662Z,1013.58
2016-07-03T00:18:08.664Z,1013.59
2016-07-03T00:18:18.660Z,1013.61
2016-07-03T00:18:28.659Z,1013.59
2016-07-03T00:18:38.656Z,1013.6
2016-07-03T00:18:48.652Z,1013.6
2016-07-03T00:18:58.655Z,1013.63
2016-07-03T00:19:08.635Z,1013.63
2016-07-03T00:19:18.636Z,1013.63
2016-07-03T00:19:28.625Z,1013.66
2016-07-03T00:19:38.624Z,1013.61
2016-07-03T00:19:48.619Z,1013.6
2016-07-03T00:19:58.614Z,1013.61
2016-07-03T00:20:08.611Z,1013.65
2016-07-03T00:20:18.600Z,1013.63
2016-07-03T00:20:28.603Z,1013.66
2016-07-03T00:20:38.608Z,1013.59
2016-07-03T00:20:48.597Z,1013.64
2016-07-03T00:20:58.589Z,1013.6
2016-07-03T00:21:08.597Z,1013.6
2016-07-03T00:21:18.572Z,1013.61
2016-07-03T00:21:28.570Z,1013.6
2016-07-03T00:21:38.566Z,1013.61
2016-07-03T00:21:48.558Z,1013.57
2016-07-03T00:21:58.556Z,1013.62
2016-07-03T00:22:08.551Z,1013.61
2016-07-03T00:22:18.545Z,1013.6
2016-07-03T00:22:28.531Z,1013.59
2016-07-03T00:22:38.539Z,1013.59
2016-07-03T00:22:48.530Z,1013.62
2016-07-03T00:22:58.523Z,1013.56
2016-07-03T00:23:08.524Z,1013.61
2016-07-03T00:23:18.511Z,1013.57
2016-07-03T00:23:28.495Z,1013.59
2016-07-03T00:23:38.503Z,1013.62
2016-07-03T00:23:48.495Z,1013.59
2016-07-03T00:23:58.493Z,1013.61
2016-07-03T00:24:08.484Z,1013.56
2016-07-03T00:24:18.482Z,1013.61
2016-07-03T00:24:28.478Z,1013.6
2016-07-03T00:24:38.472Z,1013.6
2016-07-03T00:24:48.461Z,1013.59
2016-07-03T00:24:58.452Z,1013.59
2016-07-03T00:25:08.446Z,1013.58
2016-07-03T00:25:18.451Z,1013.56
2016-07-03T00:25:28.442Z,1013.58
2016-07-03T00:25:38.433Z,1013.54
2016-07-03T00:25:48.427Z,1013.55
2016-07-03T00:25:58.428Z,1013.59
2016-07-03T00:26:08.414Z,1013.57
2016-07-03T00:26:18.407Z,1013.58
2016-07-03T00:26:28.411Z,1013.6
2016-07-03T00:26:38.403Z,1013.58
2016-07-03T00:26:48.395Z,1013.57
2016-07-03T00:26:58.392Z,1013.56
2016-07-03T00:27:08.393Z,1013.56
2016-07-03T00:27:18.385Z,1013.6
2016-07-03T00:27:28.387Z,1013.6
2016-07-03T00:27:38.375Z,1013.56
2016-07-03T00:27:48.372Z,1013.58
2016-07-03T00:27:58.363Z,1013.56
2016-07-03T00:28:08.358Z,1013.61
2016-07-03T00:28:18.351Z,1013.61
2016-07-03T00:28:28.348Z,1013.58
2016-07-03T00:28:38.342Z,1013.59
2016-07-03T00:28:48.346Z,1013.6
2016-07-03T00:28:58.332Z,1013.61
2016-07-03T00:29:08.326Z,1013.55
2016-07-03T00:29:18.318Z,1013.55
2016-07-03T00:29:28.321Z,1013.54
2016-07-03T00:29:38.317Z,1013.54
2016-07-03T00:29:48.319Z,1013.59
2016-07-03T00:29:58.324Z,1013.56
2016-07-03T00:30:08.308Z,1013.6
2016-07-03T00:30:18.294Z,1013.6
2016-07-03T00:30:28.284Z,1013.56
2016-07-03T00:30:38.291Z,1013.62
2016-07-03T00:30:48.287Z,1013.57
2016-07-03T00:30:58.284Z,1013.59
2016-07-03T00:31:08.278Z,1013.61
2016-07-03T00:31:18.269Z,1013.59
2016-07-03T00:31:28.267Z,1013.65
2016-07-03T00:31:38.260Z,1013.61
2016-07-03T00:31:48.252Z,1013.62
2016-07-03T00:31:58.251Z,1013.57
2016-07-03T00:32:08.245Z,1013.6
2016-07-03T00:32:18.245Z,1013.63
2016-07-03T00:32:28.237Z,1013.63
2016-07-03T00:32:38.232Z,1013.64
2016-07-03T00:32:48.228Z,1013.64
2016-07-03T00:32:58.224Z,1013.62
2016-07-03T00:33:08.211Z,1013.62
2016-07-03T00:33:18.210Z,1013.63
2016-07-03T00:33:28.211Z,1013.63
2016-07-03T00:33:38.197Z,1013.67
2016-07-03T00:33:48.201Z,1013.64
2016-07-03T00:33:58.192Z,1013.67
2016-07-03T00:34:08.182Z,1013.67
2016-07-03T00:34:18.178Z,1013.67
2016-07-03T00:34:28.173Z,1013.62
2016-07-03T00:34:38.168Z,1013.58
2016-07-03T00:34:48.165Z,1013.62
2016-07-03T00:34:58.160Z,1013.62
2016-07-03T00:35:08.150Z,1013.61
2016-07-03T00:35:18.153Z,1013.66
2016-07-03T00:35:28.150Z,1013.65
2016-07-03T00:35:38.141Z,1013.66
2016-07-03T00:35:48.143Z,1013.58
2016-07-03T00:35:58.127Z,1013.61
2016-07-03T00:36:08.125Z,1013.64
2016-07-03T00:36:18.118Z,1013.58
2016-07-03T00:36:28.119Z,1013.58
2016-07-03T00:36:38.110Z,1013.61
2016-07-03T00:36:48.097Z,1013.62
2016-07-03T00:36:58.111Z,1013.6
2016-07-03T00:37:08.092Z,1013.62
2016-07-03T00:37:18.099Z,1013.6
2016-07-03T00:37:28.088Z,1013.65
2016-07-03T00:37:38.079Z,1013.61
2016-07-03T00:37:48.085Z,1013.65
2016-07-03T00:37:58.071Z,1013.64
2016-07-03T00:38:08.065Z,1013.65
2016-07-03T00:38:18.058Z,1013.66
2016-07-03T00:38:28.057Z,1013.68
2016-07-03T00:38:38.052Z,1013.64
2016-07-03T00:38:48.050Z,1013.65
2016-07-03T00:38:58.049Z,1013.66
2016-07-03T00:39:08.041Z,1013.65
2016-07-03T00:39:18.037Z,1013.66
2016-07-03T00:39:28.028Z,1013.65
2016-07-03T00:39:38.033Z,1013.66
2016-07-03T00:39:48.016Z,1013.66
2016-07-03T00:39:58.016Z,1013.63
2016-07-03T00:40:08.003Z,1013.65
2016-07-03T00:40:17.997Z,1013.6
2016-07-03T00:40:27.997Z,1013.62
2016-07-03T00:40:37.992Z,1013.6
2016-07-03T00:40:47.987Z,1013.61
2016-07-03T00:40:57.970Z,1013.6
2016-07-03T00:41:07.964Z,1013.55
2016-07-03T00:41:17.965Z,1013.58
2016-07-03T00:41:27.971Z,1013.62
2016-07-03T00:41:37.949Z,1013.64
2016-07-03T00:41:47.961Z,1013.62
2016-07-03T00:41:57.949Z,1013.63
2016-07-03T00:42:07.946Z,1013.61
2016-07-03T00:42:17.938Z,1013.59
2016-07-03T00:42:27.931Z,1013.61
2016-07-03T00:42:37.927Z,1013.61
2016-07-03T00:42:47.917Z,1013.57
2016-07-03T00:42:57.910Z,1013.63
2016-07-03T00:43:07.910Z,1013.6
2016-07-03T00:43:17.913Z,1013.6
2016-07-03T00:43:27.905Z,1013.6
2016-07-03T00:43:37.906Z,1013.55
2016-07-03T00:43:47.894Z,1013.57
2016-07-03T00:43:57.883Z,1013.57
2016-07-03T00:44:07.874Z,1013.59
2016-07-03T00:44:17.877Z,1013.6
2016-07-03T00:44:27.880Z,1013.6
2016-07-03T00:44:37.865Z,1013.6
2016-07-03T00:44:47.866Z,1013.63
2016-07-03T00:44:57.863Z,1013.61
2016-07-03T00:45:07.855Z,1013.62
2016-07-03T00:45:17.855Z,1013.61
2016-07-03T00:45:27.844Z,1013.66
2016-07-03T00:45:37.843Z,1013.61
2016-07-03T00:45:47.836Z,1013.61
2016-07-03T00:45:57.826Z,1013.61
2016-07-03T00:46:07.822Z,1013.62
2016-07-03T00:46:17.815Z,1013.61
2016-07-03T00:46:27.817Z,1013.62
2016-07-03T00:46:37.810Z,1013.64
2016-07-03T00:46:47.801Z,1013.59
2016-07-03T00:46:57.802Z,1013.58
2016-07-03T00:47:07.802Z,1013.64
2016-07-03T00:47:17.785Z,1013.63
2016-07-03T00:47:27.793Z,1013.64
2016-07-03T00:47:37.778Z,1013.65
2016-07-03T00:47:47.775Z,1013.65
2016-07-03T00:47:57.769Z,1013.65
2016-07-03T00:48:07.767Z,1013.6
2016-07-03T00:48:17.753Z,1013.63
2016-07-03T00:48:27.758Z,1013.63
2016-07-03T00:48:37.751Z,1013.62
2016-07-03T00:48:47.748Z,1013.63
2016-07-03T00:48:57.741Z,1013.63
2016-07-03T00:49:07.737Z,1013.61
2016-07-03T00:49:17.724Z,1013.62
2016-07-03T00:49:27.729Z,1013.64
2016-07-03T00:49:37.722Z,1013.66
2016-07-03T00:49:47.716Z,1013.7
2016-07-03T00:49:57.702Z,1013.67
2016-07-03T00:50:07.700Z,1013.66
2016-07-03T00:50:17.696Z,1013.67
2016-07-03T00:50:27.691Z,1013.64
2016-07-03T00:50:37.697Z,1013.65
2016-07-03T00:50:47.685Z,1013.69
2016-07-03T00:50:57.680Z,1013.67
2016-07-03T00:51:07.676Z,1013.71
2016-07-03T00:51:17.686Z,1013.7
2016-07-03T00:51:27.664Z,1013.63
2016-07-03T00:51:37.664Z,1013.71
2016-07-03T00:51:47.658Z,1013.69
2016-07-03T00:51:57.664Z,1013.7
2016-07-03T00:52:07.644Z,1013.69
2016-07-03T00:52:17.638Z,1013.7
2016-07-03T00:52:27.630Z,1013.69
2016-07-03T00:52:37.630Z,1013.68
2016-07-03T00:52:47.625Z,1013.75
2016-07-03T00:52:57.621Z,1013.72
2016-07-03T00:53:08.249Z,1013.71
2016-07-03T00:53:17.620Z,1013.72
2016-07-03T00:53:27.605Z,1013.73
2016-07-03T00:53:37.597Z,1013.68
2016-07-03T00:53:47.586Z,1013.7
2016-07-03T00:53:57.580Z,1013.69
2016-07-03T00:54:07.580Z,1013.71
2016-07-03T00:54:17.582Z,1013.69
2016-07-03T00:54:27.568Z,1013.7
2016-07-03T00:54:37.569Z,1013.7
2016-07-03T00:54:47.561Z,1013.69
2016-07-03T00:54:57.551Z,1013.7
2016-07-03T00:55:07.555Z,1013.71
2016-07-03T00:55:17.548Z,1013.7
2016-07-03T00:55:27.553Z,1013.73
2016-07-03T00:55:37.539Z,1013.66
2016-07-03T00:55:47.532Z,1013.7
2016-07-03T00:55:57.528Z,1013.71
2016-07-03T00:56:07.518Z,1013.69
2016-07-03T00:56:17.516Z,1013.74
2016-07-03T00:56:27.511Z,1013.67
2016-07-03T00:56:37.509Z,1013.66
2016-07-03T00:56:47.499Z,1013.68
2016-07-03T00:56:57.493Z,1013.64
2016-07-03T00:57:07.497Z,1013.71
2016-07-03T00:57:17.487Z,1013.67
2016-07-03T00:57:27.486Z,1013.7
2016-07-03T00:57:37.477Z,1013.7
2016-07-03T00:57:47.468Z,1013.69
2016-07-03T00:57:57.475Z,1013.69
2016-07-03T00:58:07.458Z,1013.72
2016-07-03T00:58:17.456Z,1013.7
2016-07-03T00:58:27.447Z,1013.73
2016-07-03T00:58:37.448Z,1013.68
2016-07-03T00:58:47.443Z,1013.69
2016-07-03T00:58:57.437Z,1013.68
2016-07-03T00:59:07.435Z,1013.67
2016-07-03T00:59:17.433Z,1013.69
2016-07-03T00:59:27.418Z,1013.73
2016-07-03T00:59:37.416Z,1013.7
2016-07-03T00:59:47.399Z,1013.67
2016-07-03T00:59:57.394Z,1013.69
2016-07-03T01:00:07.388Z,1013.71
2016-07-03T01:00:17.387Z,1013.68
2016-07-03T01:00:27.385Z,1013.7
2016-07-03T01:00:37.381Z,1013.66
2016-07-03T01:00:47.380Z,1013.66
2016-07-03T01:00:57.372Z,1013.71
2016-07-03T01:01:07.367Z,1013.69
2016-07-03T01:01:17.363Z,1013.71
2016-07-03T01:01:27.360Z,1013.72
2016-07-03T01:01:37.351Z,1013.73
2016-07-03T01:01:47.352Z,1013.67
2016-07-03T01:01:57.334Z,1013.76
2016-07-03T01:02:07.342Z,1013.71
2016-07-03T01:02:17.329Z,1013.67
2016-07-03T01:02:27.319Z,1013.7
2016-07-03T01:02:37.326Z,1013.73
2016-07-03T01:02:47.323Z,1013.67
2016-07-03T01:02:57.311Z,1013.74
2016-07-03T01:03:07.312Z,1013.71
2016-07-03T01:03:17.301Z,1013.7
2016-07-03T01:03:27.299Z,1013.74
2016-07-03T01:03:37.280Z,1013.74
2016-07-03T01:03:47.312Z,1013.67
2016-07-03T01:03:57.281Z,1013.75
2016-07-03T01:04:07.278Z,1013.72
2016-07-03T01:04:17.267Z,1013.7
2016-07-03T01:04:27.267Z,1013.7
2016-07-03T01:04:37.252Z,1013.73
2016-07-03T01:04:47.258Z,1013.78
2016-07-03T01:04:57.256Z,1013.74
2016-07-03T01:05:07.244Z,1013.73
2016-07-03T01:05:17.250Z,1013.77
2016-07-03T01:05:27.237Z,1013.74
2016-07-03T01:05:37.230Z,1013.7
2016-07-03T01:05:47.227Z,1013.73
2016-07-03T01:05:57.224Z,1013.73
2016-07-03T01:06:07.215Z,1013.71
2016-07-03T01:06:17.214Z,1013.7
2016-07-03T01:06:27.206Z,1013.73
2016-07-03T01:06:37.204Z,1013.75
2016-07-03T01:06:47.201Z,1013.71
2016-07-03T01:06:57.192Z,1013.71
2016-07-03T01:07:07.191Z,1013.76
2016-07-03T01:07:17.183Z,1013.71
2016-07-03T01:07:27.186Z,1013.7
2016-07-03T01:07:37.172Z,1013.74
2016-07-03T01:07:47.167Z,1013.73
2016-07-03T01:07:57.171Z,1013.67
2016-07-03T01:08:07.151Z,1013.76
2016-07-03T01:08:17.149Z,1013.72
2016-07-03T01:08:27.148Z,1013.72
2016-07-03T01:08:37.141Z,1013.69
2016-07-03T01:08:47.138Z,1013.7
2016-07-03T01:08:57.134Z,1013.72
2016-07-03T01:09:07.765Z,1013.72
2016-07-03T01:09:17.122Z,1013.81
2016-07-03T01:09:27.117Z,1013.75
2016-07-03T01:09:37.114Z,1013.73
2016-07-03T01:09:47.734Z,1013.68
2016-07-03T01:09:57.097Z,1013.74
2016-07-03T01:10:07.095Z,1013.75
2016-07-03T01:10:17.085Z,1013.73
2016-07-03T01:10:27.089Z,1013.74
2016-07-03T01:10:37.084Z,1013.73
2016-07-03T01:10:47.070Z,1013.72
2016-07-03T01:10:57.067Z,1013.75
2016-07-03T01:11:07.067Z,1013.69
2016-07-03T01:11:17.060Z,1013.71
2016-07-03T01:11:27.057Z,1013.74
2016-07-03T01:11:37.046Z,1013.67
2016-07-03T01:11:47.034Z,1013.69
2016-07-03T01:11:57.025Z,1013.74
2016-07-03T01:12:07.020Z,1013.67
2016-07-03T01:12:17.015Z,1013.7
2016-07-03T01:12:27.009Z,1013.75
2016-07-03T01:12:37.010Z,1013.76
2016-07-03T01:12:47.002Z,1013.73
2016-07-03T01:12:57.000Z,1013.73
2016-07-03T01:13:06.996Z,1013.76
2016-07-03T01:13:16.988Z,1013.75
2016-07-03T01:13:26.985Z,1013.77
2016-07-03T01:13:36.978Z,1013.79
2016-07-03T01:13:46.971Z,1013.74
2016-07-03T01:13:56.963Z,1013.74
2016-07-03T01:14:06.959Z,1013.76
2016-07-03T01:14:16.957Z,1013.73
2016-07-03T01:14:26.950Z,1013.74
2016-07-03T01:14:36.949Z,1013.74
2016-07-03T01:14:46.936Z,1013.75
2016-07-03T01:14:56.940Z,1013.74
2016-07-03T01:15:06.933Z,1013.75
2016-07-03T01:15:16.925Z,1013.73
2016-07-03T01:15:26.922Z,1013.74
2016-07-03T01:15:36.917Z,1013.71
2016-07-03T01:15:46.910Z,1013.73
2016-07-03T01:15:56.906Z,1013.74
2016-07-03T01:16:06.893Z,1013.81
2016-07-03T01:16:16.895Z,1013.76
2016-07-03T01:16:26.890Z,1013.83
2016-07-03T01:16:36.900Z,1013.77
2016-07-03T01:16:46.889Z,1013.76
2016-07-03T01:16:56.889Z,1013.76
2016-07-03T01:17:06.882Z,1013.74
2016-07-03T01:17:16.872Z,1013.77
2016-07-03T01:17:26.868Z,1013.75
2016-07-03T01:17:36.865Z,1013.79
2016-07-03T01:17:46.851Z,1013.74
2016-07-03T01:17:56.849Z,1013.78
2016-07-03T01:18:06.847Z,1013.8
2016-07-03T01:18:16.841Z,1013.76
2016-07-03T01:18:26.837Z,1013.77
2016-07-03T01:18:36.836Z,1013.71
2016-07-03T01:18:46.838Z,1013.74
2016-07-03T01:18:56.826Z,1013.81
2016-07-03T01:19:06.821Z,1013.81
2016-07-03T01:19:16.812Z,1013.8
2016-07-03T01:19:26.812Z,1013.76
2016-07-03T01:19:36.806Z,1013.79
2016-07-03T01:19:46.807Z,1013.76
2016-07-03T01:19:56.799Z,1013.74
2016-07-03T01:20:06.791Z,1013.75
2016-07-03T01:20:16.785Z,1013.73
2016-07-03T01:20:26.781Z,1013.73
2016-07-03T01:20:36.776Z,1013.75
2016-07-03T01:20:46.768Z,1013.78
2016-07-03T01:20:56.759Z,1013.76
2016-07-03T01:21:06.758Z,1013.75
2016-07-03T01:21:16.764Z,1013.77
2016-07-03T01:21:26.754Z,1013.72
2016-07-03T01:21:36.754Z,1013.73
2016-07-03T01:21:46.743Z,1013.75
2016-07-03T01:21:56.738Z,1013.79
2016-07-03T01:22:06.730Z,1013.74
2016-07-03T01:22:16.729Z,1013.71
2016-07-03T01:22:26.720Z,1013.74
2016-07-03T01:22:36.719Z,1013.74
2016-07-03T01:22:46.710Z,1013.78
2016-07-03T01:22:56.704Z,1013.74
2016-07-03T01:23:06.699Z,1013.75
2016-07-03T01:23:17.331Z,1013.78
2016-07-03T01:23:26.692Z,1013.76
2016-07-03T01:23:36.679Z,1013.75
2016-07-03T01:23:46.689Z,1013.8
2016-07-03T01:23:56.686Z,1013.78
2016-07-03T01:24:06.667Z,1013.79
2016-07-03T01:24:16.660Z,1013.82
2016-07-03T01:24:26.660Z,1013.76
2016-07-03T01:24:36.654Z,1013.73
2016-07-03T01:24:46.649Z,1013.8
2016-07-03T01:24:56.641Z,1013.79
2016-07-03T01:25:06.635Z,1013.83
2016-07-03T01:25:16.629Z,1013.83
2016-07-03T01:25:26.628Z,1013.78
2016-07-03T01:25:36.623Z,1013.83
2016-07-03T01:25:46.619Z,1013.8
2016-07-03T01:25:56.609Z,1013.81
2016-07-03T01:26:06.598Z,1013.79
2016-07-03T01:26:16.601Z,1013.78
2016-07-03T01:26:26.599Z,1013.76
2016-07-03T01:26:36.588Z,1013.8
2016-07-03T01:26:46.583Z,1013.75
2016-07-03T01:26:56.588Z,1013.83
2016-07-03T01:27:06.582Z,1013.76
2016-07-03T01:27:16.571Z,1013.79
2016-07-03T01:27:26.566Z,1013.78
2016-07-03T01:27:36.563Z,1013.82
2016-07-03T01:27:46.560Z,1013.8
2016-07-03T01:27:56.550Z,1013.79
2016-07-03T01:28:06.550Z,1013.78
2016-07-03T01:28:16.541Z,1013.8
2016-07-03T01:28:26.532Z,1013.81
2016-07-03T01:28:36.520Z,1013.74
2016-07-03T01:28:46.525Z,1013.76
2016-07-03T01:28:56.518Z,1013.77
2016-07-03T01:29:06.523Z,1013.76
2016-07-03T01:29:16.511Z,1013.78
2016-07-03T01:29:26.512Z,1013.79
2016-07-03T01:29:36.500Z,1013.8
2016-07-03T01:29:46.500Z,1013.75
2016-07-03T01:29:56.494Z,1013.78
2016-07-03T01:30:06.486Z,1013.77
2016-07-03T01:30:16.482Z,1013.81
2016-07-03T01:30:26.475Z,1013.75
2016-07-03T01:30:36.463Z,1013.75
2016-07-03T01:30:46.461Z,1013.74
2016-07-03T01:30:56.451Z,1013.72
2016-07-03T01:31:06.444Z,1013.8
2016-07-03T01:31:16.436Z,1013.76
2016-07-03T01:31:26.451Z,1013.81
2016-07-03T01:31:36.443Z,1013.77
2016-07-03T01:31:46.438Z,1013.74
2016-07-03T01:31:56.418Z,1013.77
2016-07-03T01:32:06.418Z,1013.76
2016-07-03T01:32:16.414Z,1013.8
2016-07-03T01:32:26.426Z,1013.74
2016-07-03T01:32:36.403Z,1013.76
2016-07-03T01:32:46.402Z,1013.81
2016-07-03T01:32:56.392Z,1013.79
2016-07-03T01:33:06.391Z,1013.78
2016-07-03T01:33:16.381Z,1013.79
2016-07-03T01:33:26.379Z,1013.79
2016-07-03T01:33:36.375Z,1013.81
2016-07-03T01:33:46.362Z,1013.83
2016-07-03T01:33:56.359Z,1013.75
2016-07-03T01:34:06.353Z,1013.77
2016-07-03T01:34:16.369Z,1013.77
2016-07-03T01:34:26.352Z,1013.76
2016-07-03T01:34:36.336Z,1013.76
2016-07-03T01:34:46.339Z,1013.78
2016-07-03T01:34:56.333Z,1013.77
2016-07-03T01:35:06.329Z,1013.8
2016-07-03T01:35:16.316Z,1013.74
2016-07-03T01:35:26.324Z,1013.74
2016-07-03T01:35:36.321Z,1013.71
2016-07-03T01:35:46.309Z,1013.72
2016-07-03T01:35:56.304Z,1013.75
2016-07-03T01:36:06.300Z,1013.74
2016-07-03T01:36:16.297Z,1013.77
2016-07-03T01:36:26.291Z,1013.78
2016-07-03T01:36:36.282Z,1013.75
2016-07-03T01:36:46.270Z,1013.77
2016-07-03T01:36:56.263Z,1013.74
2016-07-03T01:37:06.259Z,1013.77
2016-07-03T01:37:16.259Z,1013.75
2016-07-03T01:37:26.260Z,1013.72
2016-07-03T01:37:36.249Z,1013.75
2016-07-03T01:37:46.257Z,1013.73
2016-07-03T01:37:56.236Z,1013.73
2016-07-03T01:38:06.230Z,1013.72
2016-07-03T01:38:16.227Z,1013.81
2016-07-03T01:38:26.226Z,1013.76
2016-07-03T01:38:36.222Z,1013.78
2016-07-03T01:38:46.216Z,1013.76
2016-07-03T01:38:56.209Z,1013.78
2016-07-03T01:39:06.209Z,1013.78
2016-07-03T01:39:16.198Z,1013.8
2016-07-03T01:39:26.197Z,1013.76
2016-07-03T01:39:36.191Z,1013.77
2016-07-03T01:39:46.184Z,1013.78
2016-07-03T01:39:56.183Z,1013.77
2016-07-03T01:40:06.182Z,1013.77
2016-07-03T01:40:16.175Z,1013.75
2016-07-03T01:40:26.168Z,1013.74
2016-07-03T01:40:36.165Z,1013.76
2016-07-03T01:40:46.161Z,1013.77
2016-07-03T01:40:56.158Z,1013.81
2016-07-03T01:41:06.147Z,1013.77
2016-07-03T01:41:16.139Z,1013.77
2016-07-03T01:41:26.138Z,1013.73
2016-07-03T01:41:36.130Z,1013.76
2016-07-03T01:41:46.126Z,1013.8
2016-07-03T01:41:56.124Z,1013.76
2016-07-03T01:42:06.120Z,1013.75
2016-07-03T01:42:16.114Z,1013.74
2016-07-03T01:42:26.110Z,1013.76
2016-07-03T01:42:36.108Z,1013.74
2016-07-03T01:42:46.095Z,1013.75
2016-07-03T01:42:56.090Z,1013.75
2016-07-03T01:43:06.088Z,1013.79
2016-07-03T01:43:16.082Z,1013.73
2016-07-03T01:43:26.279Z,1013.76
2016-07-03T01:43:36.071Z,1013.76
2016-07-03T01:43:46.075Z,1013.74
2016-07-03T01:43:56.070Z,1013.78
2016-07-03T01:44:06.054Z,1013.79
2016-07-03T01:44:16.051Z,1013.78
2016-07-03T01:44:26.058Z,1013.75
2016-07-03T01:44:36.041Z,1013.75
2016-07-03T01:44:46.040Z,1013.73
2016-07-03T01:44:56.030Z,1013.74
2016-07-03T01:45:06.023Z,1013.74
2016-07-03T01:45:16.021Z,1013.75
2016-07-03T01:45:26.014Z,1013.74
2016-07-03T01:45:36.009Z,1013.69
2016-07-03T01:45:46.007Z,1013.75
2016-07-03T01:45:56.003Z,1013.74
2016-07-03T01:46:06.000Z,1013.73
2016-07-03T01:46:15.992Z,1013.74
2016-07-03T01:46:26.627Z,1013.76
2016-07-03T01:46:35.978Z,1013.74
2016-07-03T01:46:45.978Z,1013.74
2016-07-03T01:46:55.966Z,1013.75
2016-07-03T01:47:05.963Z,1013.78
2016-07-03T01:47:15.955Z,1013.76
2016-07-03T01:47:25.952Z,1013.71
2016-07-03T01:47:35.953Z,1013.71
2016-07-03T01:47:45.950Z,1013.76
2016-07-03T01:47:55.945Z,1013.74
2016-07-03T01:48:05.937Z,1013.72
2016-07-03T01:48:15.930Z,1013.72
2016-07-03T01:48:25.929Z,1013.73
2016-07-03T01:48:35.923Z,1013.73
2016-07-03T01:48:45.914Z,1013.79
2016-07-03T01:48:55.903Z,1013.72
2016-07-03T01:49:05.899Z,1013.69
2016-07-03T01:49:15.894Z,1013.72
2016-07-03T01:49:25.895Z,1013.74
2016-07-03T01:49:35.887Z,1013.7
2016-07-03T01:49:45.883Z,1013.69
2016-07-03T01:49:55.878Z,1013.68
2016-07-03T01:50:05.874Z,1013.71
2016-07-03T01:50:15.867Z,1013.72
2016-07-03T01:50:25.855Z,1013.68
2016-07-03T01:50:35.855Z,1013.74
2016-07-03T01:50:45.845Z,1013.76
2016-07-03T01:50:55.841Z,1013.76
2016-07-03T01:51:05.838Z,1013.74
2016-07-03T01:51:15.832Z,1013.73
2016-07-03T01:51:25.827Z,1013.73
2016-07-03T01:51:35.826Z,1013.73
2016-07-03T01:51:45.816Z,1013.74
2016-07-03T01:51:55.810Z,1013.71
2016-07-03T01:52:05.807Z,1013.69
2016-07-03T01:52:15.806Z,1013.75
2016-07-03T01:52:25.795Z,1013.67
2016-07-03T01:52:35.789Z,1013.7
2016-07-03T01:52:45.795Z,1013.73
2016-07-03T01:52:55.777Z,1013.71
2016-07-03T01:53:05.771Z,1013.7
2016-07-03T01:53:15.766Z,1013.73
2016-07-03T01:53:25.787Z,1013.7
2016-07-03T01:53:35.765Z,1013.68
2016-07-03T01:53:45.753Z,1013.72
2016-07-03T01:53:55.749Z,1013.72
2016-07-03T01:54:05.741Z,1013.69
2016-07-03T01:54:15.738Z,1013.7
2016-07-03T01:54:25.733Z,1013.73
2016-07-03T01:54:35.728Z,1013.69
2016-07-03T01:54:45.725Z,1013.7
2016-07-03T01:54:55.717Z,1013.7
2016-07-03T01:55:05.709Z,1013.7
2016-07-03T01:55:15.703Z,1013.67
2016-07-03T01:55:25.705Z,1013.7
2016-07-03T01:55:35.698Z,1013.68
2016-07-03T01:55:45.691Z,1013.72
2016-07-03T01:55:55.693Z,1013.7
2016-07-03T01:56:05.687Z,1013.7
2016-07-03T01:56:15.684Z,1013.69
2016-07-03T01:56:25.669Z,1013.7
2016-07-03T01:56:35.663Z,1013.69
2016-07-03T01:56:45.661Z,1013.68
2016-07-03T01:56:55.660Z,1013.68
2016-07-03T01:57:05.647Z,1013.7
2016-07-03T01:57:15.651Z,1013.7
2016-07-03T01:57:25.641Z,1013.7
2016-07-03T01:57:35.642Z,1013.72
2016-07-03T01:57:45.639Z,1013.73
2016-07-03T01:57:55.620Z,1013.71
2016-07-03T01:58:05.624Z,1013.69
2016-07-03T01:58:15.624Z,1013.69
2016-07-03T01:58:25.612Z,1013.69
2016-07-03T01:58:35.604Z,1013.67
2016-07-03T01:58:45.604Z,1013.66
2016-07-03T01:58:55.601Z,1013.74
2016-07-03T01:59:05.586Z,1013.66
2016-07-03T01:59:15.589Z,1013.68
2016-07-03T01:59:25.576Z,1013.61
2016-07-03T01:59:35.579Z,1013.67
2016-07-03T01:59:45.579Z,1013.63
2016-07-03T01:59:55.573Z,1013.67
2016-07-03T02:00:05.576Z,1013.69
2016-07-03T02:00:15.573Z,1013.66
2016-07-03T02:00:25.560Z,1013.67
2016-07-03T02:00:35.556Z,1013.61
2016-07-03T02:00:45.541Z,1013.64
2016-07-03T02:00:55.543Z,1013.65
2016-07-03T02:01:05.541Z,1013.66
2016-07-03T02:01:15.529Z,1013.65
2016-07-03T02:01:25.524Z,1013.66